createdAt,value
2023-05-25T00:02:34.691Z,12.50
2023-05-25T00:06:45.715Z,12.50
2023-05-25T00:10:55.018Z,12.50
2023-05-25T00:15:04.149Z,12.40
2023-05-25T00:19:14.729Z,12.30
2023-05-25T00:23:23.931Z,12.40
2023-05-25T00:27:33.710Z,12.40
2023-05-25T00:31:42.695Z,12.40
2023-05-25T00:35:54.534Z,12.40
2023-05-25T00:40:04.755Z,12.40
2023-05-25T00:44:15.187Z,12.40
2023-05-25T00:48:25.880Z,12.40
2023-05-25T00:52:36.971Z,12.40
2023-05-25T00:56:49.360Z,12.40
2023-05-25T01:01:00.064Z,12.30
2023-05-25T01:05:13.676Z,12.40
2023-05-25T01:09:26.421Z,12.40
2023-05-25T01:13:38.501Z,12.40
2023-05-25T01:17:47.922Z,12.50
2023-05-25T01:22:05.361Z,12.50
2023-05-25T01:26:18.091Z,12.50
2023-05-25T01:30:28.555Z,12.40
2023-05-25T01:34:39.345Z,12.40
2023-05-25T01:38:50.295Z,12.40
2023-05-25T01:42:59.466Z,12.40
2023-05-25T01:47:12.875Z,12.40
2023-05-25T01:51:33.859Z,12.40
2023-05-25T01:55:54.081Z,12.50
2023-05-25T02:00:05.344Z,12.40
2023-05-25T02:04:14.765Z,12.40
2023-05-25T02:08:24.147Z,12.40
2023-05-25T02:12:34.852Z,12.40
2023-05-25T02:16:46.348Z,12.40
2023-05-25T02:20:55.477Z,12.30
2023-05-25T02:25:04.644Z,12.30
2023-05-25T02:29:15.245Z,12.30
2023-05-25T02:33:24.306Z,12.40
2023-05-25T02:37:33.426Z,12.40
2023-05-25T02:41:42.556Z,12.40
2023-05-25T02:45:53.127Z,12.30
2023-05-25T02:50:02.136Z,12.40
2023-05-25T02:54:11.225Z,12.30
2023-05-25T02:58:20.291Z,12.40
2023-05-25T03:02:31.188Z,12.40
2023-05-25T03:06:40.256Z,12.40
2023-05-25T03:10:49.612Z,12.40
2023-05-25T03:14:58.830Z,12.40
2023-05-25T03:19:10.930Z,12.40
2023-05-25T03:23:19.936Z,12.40
2023-05-25T03:27:28.993Z,12.40
2023-05-25T03:31:38.157Z,12.40
2023-05-25T03:35:49.119Z,12.40
2023-05-25T03:39:58.338Z,12.40
2023-05-25T03:44:07.645Z,12.40
2023-05-25T03:48:16.850Z,12.40
2023-05-25T03:52:27.443Z,12.30
2023-05-25T03:56:36.861Z,12.30
2023-05-25T04:00:46.113Z,12.30
2023-05-25T04:04:56.725Z,12.30
2023-05-25T04:09:07.331Z,12.30
2023-05-25T04:13:16.513Z,12.30
2023-05-25T04:17:25.683Z,12.30
2023-05-25T04:21:34.792Z,12.20
2023-05-25T04:25:45.969Z,12.20
2023-05-25T04:29:56.373Z,12.20
2023-05-25T04:34:05.390Z,12.20
2023-05-25T04:38:17.908Z,12.20
2023-05-25T04:42:29.158Z,12.20
2023-05-25T04:46:39.370Z,12.30
2023-05-25T04:50:48.436Z,12.30
2023-05-25T04:54:57.561Z,12.30
2023-05-25T04:59:08.153Z,12.40
2023-05-25T05:03:17.455Z,12.40
2023-05-25T05:07:26.650Z,12.50
2023-05-25T05:11:35.624Z,12.60
2023-05-25T05:15:46.991Z,12.60
2023-05-25T05:19:56.055Z,12.70
2023-05-25T05:24:05.180Z,12.70
2023-05-25T05:28:14.296Z,12.90
2023-05-25T05:32:25.126Z,12.90
2023-05-25T05:36:45.143Z,12.90
2023-05-25T05:40:54.338Z,13.10
2023-05-25T05:45:03.596Z,13.20
2023-05-25T05:49:14.287Z,13.20
2023-05-25T05:53:23.365Z,13.40
2023-05-25T05:57:32.378Z,13.40
2023-05-25T06:01:42.915Z,13.50
2023-05-25T06:05:53.596Z,13.60
2023-05-25T06:10:05.383Z,13.70
2023-05-25T06:14:14.456Z,13.80
2023-05-25T06:18:23.386Z,14.00
2023-05-25T06:22:33.879Z,14.10
2023-05-25T06:26:42.866Z,14.20
2023-05-25T06:30:52.039Z,14.40
2023-05-25T06:35:01.093Z,14.50
2023-05-25T06:39:11.778Z,14.70
2023-05-25T06:43:20.847Z,14.90
2023-05-25T06:47:31.217Z,15.00
2023-05-25T06:51:40.379Z,15.20
2023-05-25T06:55:51.134Z,15.30
2023-05-25T07:00:00.458Z,15.50
2023-05-25T07:04:09.547Z,15.60
2023-05-25T07:08:18.537Z,15.80
2023-05-25T07:12:29.248Z,15.90
2023-05-25T07:16:38.546Z,16.10
2023-05-25T07:20:48.612Z,16.30
2023-05-25T07:24:57.828Z,16.40
2023-05-25T07:29:08.209Z,16.60
2023-05-25T07:33:17.256Z,16.70
2023-05-25T07:37:26.161Z,16.80
2023-05-25T07:41:35.261Z,17.00
2023-05-25T07:45:46.100Z,17.10
2023-05-25T07:49:55.245Z,17.20
2023-05-25T07:54:04.308Z,17.30
2023-05-25T07:58:13.398Z,17.50
2023-05-25T08:02:24.027Z,17.60
2023-05-25T08:06:34.610Z,17.70
2023-05-25T08:10:43.697Z,17.70
2023-05-25T08:14:54.417Z,17.80
2023-05-25T08:19:04.889Z,17.90
2023-05-25T08:23:13.967Z,18.00
2023-05-25T08:27:23.112Z,18.00
2023-05-25T08:31:33.107Z,18.20
2023-05-25T08:35:43.862Z,18.30
2023-05-25T08:39:53.105Z,18.30
2023-05-25T08:44:06.528Z,18.50
2023-05-25T08:48:31.413Z,18.70
2023-05-25T08:52:48.107Z,19.10
2023-05-25T08:57:02.808Z,19.30
2023-05-25T09:01:13.908Z,19.30
2023-05-25T09:05:23.325Z,19.10
2023-05-25T09:09:36.382Z,19.10
2023-05-25T09:13:45.419Z,18.90
2023-05-25T09:17:54.549Z,19.00
2023-05-25T09:22:14.776Z,19.30
2023-05-25T09:26:27.014Z,19.60
2023-05-25T09:30:36.180Z,19.10
2023-05-25T09:34:45.674Z,19.20
2023-05-25T09:38:55.916Z,19.40
2023-05-25T09:43:06.915Z,19.70
2023-05-25T09:47:17.169Z,19.80
2023-05-25T09:51:26.260Z,20.10
2023-05-25T09:55:51.358Z,20.50
2023-05-25T10:00:05.936Z,20.40
2023-05-25T10:04:18.585Z,20.20
2023-05-25T10:08:29.298Z,20.30
2023-05-25T10:12:39.444Z,20.10
2023-05-25T10:16:53.289Z,19.80
2023-05-25T10:21:05.882Z,19.90
2023-05-25T10:25:24.054Z,19.90
2023-05-25T10:29:35.304Z,19.90
2023-05-25T10:33:49.334Z,19.90
2023-05-25T10:38:03.693Z,20.00
2023-05-25T10:42:13.452Z,20.00
2023-05-25T10:46:22.999Z,20.20
2023-05-25T10:50:37.820Z,20.30
2023-05-25T10:54:48.010Z,20.30
2023-05-25T10:58:57.277Z,20.30
2023-05-25T11:03:06.688Z,20.50
2023-05-25T11:07:19.715Z,20.90
2023-05-25T11:12:03.876Z,21.00
2023-05-25T11:16:36.458Z,20.60
2023-05-25T11:20:45.698Z,20.90
2023-05-25T11:24:59.056Z,21.10
2023-05-25T11:29:16.052Z,20.60
2023-05-25T11:33:25.343Z,20.40
2023-05-25T11:37:34.421Z,20.80
2023-05-25T11:41:50.325Z,21.00
2023-05-25T11:46:00.841Z,20.90
2023-05-25T11:50:16.818Z,20.90
2023-05-25T11:54:27.090Z,20.90
2023-05-25T11:58:37.957Z,21.20
2023-05-25T12:02:47.256Z,21.50
2023-05-25T12:07:03.850Z,21.50
2023-05-25T12:11:13.762Z,21.30
2023-05-25T12:15:25.994Z,20.90
2023-05-25T12:19:35.131Z,20.90
2023-05-25T12:23:44.451Z,20.80
2023-05-25T12:28:11.394Z,20.70
2023-05-25T12:32:22.266Z,20.80
2023-05-25T12:36:41.977Z,20.90
2023-05-25T12:41:07.233Z,21.00
2023-05-25T12:45:16.489Z,21.10
2023-05-25T12:49:31.968Z,21.00
2023-05-25T12:53:50.408Z,21.00
2023-05-25T12:58:01.781Z,21.40
2023-05-25T13:02:11.526Z,21.70
2023-05-25T13:06:22.352Z,21.70
2023-05-25T13:10:32.968Z,21.60
2023-05-25T13:14:42.267Z,21.00
2023-05-25T13:18:51.620Z,21.00
2023-05-25T13:23:03.641Z,20.90
2023-05-25T13:27:12.944Z,20.80
2023-05-25T13:31:22.002Z,20.90
2023-05-25T13:35:46.046Z,21.10
2023-05-25T13:39:58.559Z,21.20
2023-05-25T13:44:07.772Z,21.20
2023-05-25T13:48:16.982Z,21.40
2023-05-25T13:52:27.316Z,21.30
2023-05-25T13:56:37.851Z,21.10
2023-05-25T14:00:47.099Z,21.30
2023-05-25T14:04:57.441Z,21.40
2023-05-25T14:09:06.908Z,21.20
2023-05-25T14:13:17.462Z,21.40
2023-05-25T14:17:26.914Z,21.90
2023-05-25T14:21:37.728Z,21.60
2023-05-25T14:25:47.308Z,21.70
2023-05-25T14:29:57.818Z,21.80
2023-05-25T14:34:07.029Z,21.60
2023-05-25T14:38:16.202Z,21.50
2023-05-25T14:42:25.547Z,21.80
2023-05-25T14:46:36.992Z,21.20
2023-05-25T14:50:46.829Z,21.00
2023-05-25T14:54:56.001Z,21.30
2023-05-25T14:59:05.201Z,21.40
2023-05-25T15:03:16.046Z,21.10
2023-05-25T15:07:25.310Z,21.00
2023-05-25T15:11:34.456Z,21.00
2023-05-25T15:15:43.939Z,21.10
2023-05-25T15:19:54.899Z,21.10
2023-05-25T15:24:06.693Z,21.30
2023-05-25T15:28:28.074Z,21.60
2023-05-25T15:32:38.007Z,20.90
2023-05-25T15:36:48.684Z,20.70
2023-05-25T15:40:57.685Z,21.00
2023-05-25T15:45:08.018Z,20.70
2023-05-25T15:49:17.136Z,20.90
2023-05-25T15:53:27.857Z,21.00
2023-05-25T15:57:36.950Z,20.70
2023-05-25T16:01:46.241Z,20.90
2023-05-25T16:05:56.001Z,20.90
2023-05-25T16:10:07.703Z,20.40
2023-05-25T16:14:16.988Z,20.60
2023-05-25T16:18:26.392Z,20.70
2023-05-25T16:22:35.467Z,20.90
2023-05-25T16:26:46.263Z,20.60
2023-05-25T16:30:55.322Z,20.60
2023-05-25T16:35:04.356Z,20.20
2023-05-25T16:39:13.452Z,20.20
2023-05-25T16:43:26.200Z,20.00
2023-05-25T16:47:35.290Z,20.10
2023-05-25T16:51:44.579Z,20.10
2023-05-25T16:55:53.694Z,19.90
2023-05-25T17:00:04.528Z,19.70
2023-05-25T17:04:13.579Z,19.70
2023-05-25T17:08:22.612Z,19.90
2023-05-25T17:12:32.150Z,19.80
2023-05-25T17:16:42.816Z,19.70
2023-05-25T17:20:51.958Z,19.80
2023-05-25T17:25:01.148Z,20.00
2023-05-25T17:29:10.193Z,20.00
2023-05-25T17:33:21.037Z,20.10
2023-05-25T17:37:30.054Z,20.00
2023-05-25T17:41:39.100Z,19.80
2023-05-25T17:45:48.415Z,19.20
2023-05-25T17:49:59.046Z,19.10
2023-05-25T17:54:08.165Z,18.90
2023-05-25T17:58:17.252Z,18.80
2023-05-25T18:02:27.501Z,18.80
2023-05-25T18:06:38.415Z,18.90
2023-05-25T18:10:47.499Z,18.80
2023-05-25T18:14:57.476Z,18.70
2023-05-25T18:19:06.865Z,18.50
2023-05-25T18:23:17.478Z,18.40
2023-05-25T18:27:26.496Z,18.30
2023-05-25T18:31:35.657Z,18.10
2023-05-25T18:35:45.145Z,18.00
2023-05-25T18:39:55.990Z,17.80
2023-05-25T18:44:05.516Z,17.80
2023-05-25T18:48:16.105Z,17.60
2023-05-25T18:52:26.766Z,17.60
2023-05-25T18:56:38.641Z,17.40
2023-05-25T19:00:47.774Z,17.20
2023-05-25T19:04:56.810Z,17.10
2023-05-25T19:09:06.042Z,17.00
2023-05-25T19:13:17.133Z,16.90
2023-05-25T19:17:26.280Z,16.70
2023-05-25T19:21:41.653Z,16.60
2023-05-25T19:25:51.231Z,16.50
2023-05-25T19:30:01.993Z,16.30
2023-05-25T19:34:11.740Z,16.20
2023-05-25T19:38:22.126Z,16.10
2023-05-25T19:42:32.555Z,15.90
2023-05-25T19:46:43.128Z,15.90
2023-05-25T19:50:52.562Z,15.80
2023-05-25T19:55:01.747Z,15.80
2023-05-25T19:59:10.841Z,15.70
2023-05-25T20:03:22.310Z,15.70
2023-05-25T20:07:31.540Z,15.50
2023-05-25T20:11:40.625Z,15.40
2023-05-25T20:15:50.998Z,15.30
2023-05-25T20:20:02.175Z,15.20
2023-05-25T20:24:11.219Z,15.20
2023-05-25T20:28:20.284Z,15.20
2023-05-25T20:32:29.863Z,15.10
2023-05-25T20:36:40.464Z,15.00
2023-05-25T20:40:49.465Z,15.00
2023-05-25T20:44:58.611Z,14.90
2023-05-25T20:49:07.714Z,14.80
2023-05-25T20:53:19.612Z,14.80
2023-05-25T20:57:29.733Z,14.80
2023-05-25T21:01:39.560Z,14.60
2023-05-25T21:05:49.574Z,14.60
2023-05-25T21:10:00.961Z,14.50
2023-05-25T21:15:04.547Z,14.50
2023-05-25T21:19:13.789Z,14.40
2023-05-25T21:23:22.969Z,14.40
2023-05-25T21:27:33.755Z,14.30
2023-05-25T21:31:42.896Z,14.30
2023-05-25T21:35:52.208Z,14.30
2023-05-25T21:40:01.423Z,14.20
2023-05-25T21:44:12.284Z,14.20
2023-05-25T21:48:21.750Z,14.20
2023-05-25T21:52:31.090Z,14.10
2023-05-25T21:56:40.372Z,14.10
2023-05-25T22:00:51.135Z,14.00
2023-05-25T22:05:00.333Z,13.90
2023-05-25T22:09:09.952Z,13.80
2023-05-25T22:13:19.223Z,13.80
2023-05-25T22:17:30.109Z,13.80
2023-05-25T22:21:39.328Z,13.80
2023-05-25T22:25:48.534Z,13.80
2023-05-25T22:29:57.812Z,13.80
2023-05-25T22:34:08.802Z,13.70
2023-05-25T22:38:18.120Z,13.70
2023-05-25T22:42:27.492Z,13.70
2023-05-25T22:46:36.857Z,13.60
2023-05-25T22:50:47.630Z,13.60
2023-05-25T22:54:58.462Z,13.50
2023-05-25T22:59:07.703Z,13.50
2023-05-25T23:03:17.080Z,13.60
2023-05-25T23:07:28.024Z,13.50
2023-05-25T23:11:37.243Z,13.40
2023-05-25T23:15:47.873Z,13.40
2023-05-25T23:19:58.366Z,13.40
2023-05-25T23:24:09.453Z,13.30
2023-05-25T23:28:21.242Z,13.40
2023-05-25T23:32:30.488Z,13.40
2023-05-25T23:36:40.892Z,13.30
2023-05-25T23:40:51.546Z,13.30
2023-05-25T23:45:00.722Z,13.20
2023-05-25T23:49:09.951Z,13.20
2023-05-25T23:53:19.281Z,13.10
2023-05-25T23:57:30.006Z,13.10
